Time;durP1;ratioP1;P1;durP2;ratioP2;P2;SDS_P1;SDS_P2;PMS_P1;PMS_P2;Temp;Humidity;BMP_temperature;BMP_pressure;BME280_temperature;BME280_humidity;BME280_pressure;Samples;Min_cycle;Max_cycle;Signal;HPM_P1;HPM_P2
2023/02/10 00:00:26;;;;;;;10.27;4.97;;;;;;;-10.00;65.40;98385.97;5072710;28;20127;-61
2023/02/10 00:02:54;;;;;;;10.27;4.70;;;;;;;-10.16;65.47;98388.28;5073527;28;20059;-61
2023/02/10 00:05:21;;;;;;;13.13;4.47;;;;;;;-10.16;65.27;98393.34;5073508;28;20084;-60
2023/02/10 00:07:48;;;;;;;8.57;4.60;;;;;;;-10.17;65.41;98393.22;5073380;28;20128;-61
2023/02/10 00:10:15;;;;;;;9.43;4.28;;;;;;;-10.21;65.61;98391.25;5073380;28;20059;-61
2023/02/10 00:12:42;;;;;;;8.32;4.28;;;;;;;-10.25;65.68;98387.59;5073270;28;20123;-59
2023/02/10 00:15:11;;;;;;;13.77;5.10;;;;;;;-10.22;65.54;98389.47;5073205;28;20086;-60
2023/02/10 00:17:38;;;;;;;15.90;4.32;;;;;;;-10.33;65.45;98383.63;5073180;28;20095;-61
2023/02/10 00:20:07;;;;;;;9.40;4.75;;;;;;;-10.41;65.60;98385.59;5073258;28;20102;-60
2023/02/10 00:22:35;;;;;;;10.68;4.57;;;;;;;-10.40;65.74;98382.28;5073387;28;20053;-61
2023/02/10 00:25:02;;;;;;;8.40;5.05;;;;;;;-10.52;65.51;98384.81;5073247;28;20072;-60
2023/02/10 00:27:33;;;;;;;10.48;5.38;;;;;;;-10.56;66.14;98382.81;5073099;28;20575;-60
2023/02/10 00:30:01;;;;;;;10.70;5.43;;;;;;;-10.63;66.28;98393.25;5073498;28;20051;-62
2023/02/10 00:32:30;;;;;;;9.85;5.03;;;;;;;-10.71;66.35;98390.16;5073079;28;20044;-61
2023/02/10 00:34:57;;;;;;;8.98;3.95;;;;;;;-10.69;66.58;98388.63;5073151;28;20557;-62
2023/02/10 00:37:27;;;;;;;9.45;4.80;;;;;;;-10.82;66.89;98379.22;5073148;28;20131;-61
2023/02/10 00:39:55;;;;;;;10.07;4.82;;;;;;;-10.85;67.06;98374.81;5073233;28;20056;-62
2023/02/10 00:42:22;;;;;;;10.00;4.97;;;;;;;-10.91;67.34;98365.13;5073078;28;20501;-60
2023/02/10 00:44:51;;;;;;;8.52;4.28;;;;;;;-11.08;67.71;98357.91;5073022;28;20155;-62
2023/02/10 00:47:19;;;;;;;8.95;4.93;;;;;;;-11.03;67.74;98361.66;5072875;28;20045;-62
2023/02/10 00:49:48;;;;;;;8.15;4.00;;;;;;;-11.07;67.88;98354.59;5073219;28;20506;-61
2023/02/10 00:52:15;;;;;;;8.52;4.80;;;;;;;-11.09;67.96;98351.06;5073120;28;20091;-59
2023/02/10 00:54:42;;;;;;;10.57;5.30;;;;;;;-11.14;67.83;98345.66;5072919;28;20092;-61
2023/02/10 00:57:09;;;;;;;8.43;4.35;;;;;;;-11.10;67.94;98341.72;5072714;28;20041;-62
2023/02/10 00:59:36;;;;;;;11.63;4.88;;;;;;;-10.98;67.86;98346.81;5072764;28;20127;-59
2023/02/10 01:02:03;;;;;;;11.13;4.75;;;;;;;-10.93;67.60;98348.94;5072947;28;20478;-60
2023/02/10 01:04:30;;;;;;;11.90;3.72;;;;;;;-11.04;67.66;98342.19;5072857;28;20474;-61
2023/02/10 01:06:59;;;;;;;11.40;4.53;;;;;;;-11.15;67.76;98340.50;5072855;28;20098;-62
2023/02/10 01:09:27;;;;;;;12.30;4.65;;;;;;;-11.22;68.17;98331.56;5072754;28;20477;-62
2023/02/10 01:11:54;;;;;;;7.50;4.55;;;;;;;-11.25;68.15;98331.31;5073543;28;20127;-60
2023/02/10 01:14:21;;;;;;;12.13;5.20;;;;;;;-11.19;68.32;98329.28;5076621;28;20552;-61
2023/02/10 01:16:48;;;;;;;8.90;4.78;;;;;;;-11.19;68.36;98325.09;5076670;28;20045;-61
2023/02/10 01:19:16;;;;;;;9.85;5.10;;;;;;;-11.19;68.34;98325.09;5076629;28;20379;-62
2023/02/10 01:21:43;;;;;;;12.45;4.93;;;;;;;-11.14;68.26;98335.53;5076469;28;20049;-62
2023/02/10 01:24:12;;;;;;;8.98;4.63;;;;;;;-11.18;68.26;98326.84;5076487;28;20094;-60
2023/02/10 01:26:39;;;;;;;10.13;5.03;;;;;;;-11.11;68.54;98330.72;5076511;28;20409;-61
2023/02/10 01:29:07;;;;;;;8.55;4.03;;;;;;;-11.02;68.03;98339.78;5076382;28;20048;-60
2023/02/10 01:31:34;;;;;;;12.38;4.63;;;;;;;-11.02;68.20;98330.53;5076329;28;20487;-61
2023/02/10 01:34:01;;;;;;;9.02;4.28;;;;;;;-11.06;67.92;98328.53;5076478;28;20051;-61
2023/02/10 01:36:28;;;;;;;5.15;3.50;;;;;;;-11.08;67.88;98325.91;5076180;28;20044;-63
2023/02/10 01:38:55;;;;;;;8.73;4.18;;;;;;;-11.15;68.04;98331.25;5076390;28;20052;-60
2023/02/10 01:41:24;;;;;;;8.10;4.20;;;;;;;-11.19;68.26;98329.28;5076171;28;20048;-63
2023/02/10 01:43:56;;;;;;;6.43;3.43;;;;;;;-11.13;68.28;98328.84;5076174;28;20044;-63
2023/02/10 01:46:24;;;;;;;9.48;4.75;;;;;;;-11.16;68.19;98339.63;5076020;28;20336;-59
2023/02/10 01:48:52;;;;;;;8.57;4.38;;;;;;;-11.15;67.85;98337.97;5076163;28;20044;-60
2023/02/10 01:51:23;;;;;;;7.88;4.45;;;;;;;-11.22;67.90;98324.88;5075903;28;20049;-61
2023/02/10 01:53:50;;;;;;;9.18;3.90;;;;;;;-11.23;67.92;98314.63;5076035;28;20407;-59
2023/02/10 01:56:18;;;;;;;8.93;4.30;;;;;;;-11.30;67.84;98316.69;5075970;28;20556;-60
2023/02/10 01:58:47;;;;;;;7.93;4.30;;;;;;;-11.43;68.35;98325.00;5075865;28;20053;-59
2023/02/10 02:01:15;;;;;;;7.45;4.28;;;;;;;-11.46;68.64;98321.34;5075880;28;20053;-61
2023/02/10 02:03:42;;;;;;;9.80;4.60;;;;;;;-11.44;68.66;98320.69;5075770;28;20045;-61
2023/02/10 02:06:10;;;;;;;11.05;4.70;;;;;;;-11.46;68.65;98317.19;5075668;28;20123;-60
2023/02/10 02:08:39;;;;;;;8.13;3.70;;;;;;;-11.40;68.41;98313.34;5075557;28;20422;-64
2023/02/10 02:11:18;;;;;;;9.65;4.18;;;;;;;-11.39;68.42;98305.00;5075933;28;20091;-59
2023/02/10 02:14:04;;;;;;;6.20;3.17;;;;;;;-11.48;68.11;98308.59;5075415;28;20488;-64
2023/02/10 02:16:45;;;;;;;7.07;3.67;;;;;;;-11.52;68.41;98301.53;5075625;28;20048;-62
2023/02/10 02:19:36;;;;;;;8.30;4.20;;;;;;;-11.45;67.90;98300.34;5075471;28;20048;-62
2023/02/10 02:22:39;;;;;;;9.07;4.10;;;;;;;-11.48;68.35;98308.59;5075598;28;20048;-62
2023/02/10 02:25:26;;;;;;;9.77;4.20;;;;;;;-11.47;68.28;98302.75;5074451;28;20044;-62
2023/02/10 02:28:09;;;;;;;12.43;4.97;;;;;;;-11.51;68.62;98300.75;5075288;28;20074;-62
2023/02/10 02:30:56;;;;;;;9.90;3.95;;;;;;;-11.46;68.33;98301.13;5075329;28;20052;-60
2023/02/10 02:33:32;;;;;;;7.53;3.78;;;;;;;-11.49;68.28;98300.88;5075385;28;20474;-62
2023/02/10 02:36:03;;;;;;;12.57;4.82;;;;;;;-11.50;68.41;98300.00;5074988;28;20048;-62
2023/02/10 02:38:31;;;;;;;8.57;5.05;;;;;;;-11.43;68.38;98294.66;5075188;28;20059;-62
2023/02/10 02:40:59;;;;;;;13.02;5.00;;;;;;;-11.44;68.20;98295.41;5075418;28;20058;-60
2023/02/10 02:43:26;;;;;;;8.57;4.78;;;;;;;-11.48;68.42;98302.63;5075070;28;20087;-61
2023/02/10 02:46:02;;;;;;;10.75;4.65;;;;;;;-11.50;68.26;98301.66;5075004;28;20053;-62
2023/02/10 02:48:48;;;;;;;12.13;5.40;;;;;;;-11.57;68.47;98303.69;5075049;28;20044;-62
2023/02/10 02:51:26;;;;;;;9.75;5.25;;;;;;;-11.63;68.51;98293.13;5074897;28;20050;-62
2023/02/10 02:54:01;;;;;;;6.80;3.75;;;;;;;-11.63;68.57;98294.78;5075206;28;20044;-59
2023/02/10 02:56:37;;;;;;;9.63;4.75;;;;;;;-11.62;68.17;98294.00;5074768;28;20041;-60
2023/02/10 02:59:12;;;;;;;7.78;4.20;;;;;;;-11.70;68.40;98294.31;5074688;28;20059;-61
2023/02/10 03:01:46;;;;;;;11.05;5.32;;;;;;;-11.70;68.41;98293.41;5074813;28;20407;-60
2023/02/10 03:04:17;;;;;;;12.00;4.78;;;;;;;-11.71;68.52;98290.00;5074606;28;20491;-60
2023/02/10 03:06:44;;;;;;;10.82;4.82;;;;;;;-11.69;68.82;98295.16;5074612;28;20067;-59
2023/02/10 03:09:11;;;;;;;14.48;6.20;;;;;;;-11.67;68.98;98296.19;5074998;28;20132;-62
2023/02/10 03:11:39;;;;;;;19.42;5.57;;;;;;;-11.65;68.87;98293.78;5074605;28;20375;-61
2023/02/10 03:14:06;;;;;;;9.77;5.30;;;;;;;-11.65;68.90;98287.09;5074213;28;20052;-62
2023/02/10 03:16:34;;;;;;;13.18;6.07;;;;;;;-11.61;69.15;98293.25;5074350;28;20071;-61
2023/02/10 03:19:01;;;;;;;12.05;5.32;;;;;;;-11.59;69.66;98289.19;5074443;28;20139;-62
2023/02/10 03:21:30;;;;;;;11.35;5.30;;;;;;;-11.56;69.40;98277.66;5074368;28;20053;-60
2023/02/10 03:23:57;;;;;;;14.07;4.47;;;;;;;-11.55;69.78;98288.66;5074368;28;20049;-60
2023/02/10 03:26:24;;;;;;;12.95;5.95;;;;;;;-11.53;69.40;98277.03;5074211;28;20075;-61
2023/02/10 03:28:51;;;;;;;19.83;6.70;;;;;;;-11.47;68.94;98269.03;5074149;28;20084;-60
2023/02/10 03:31:18;;;;;;;12.70;5.55;;;;;;;-11.58;68.89;98274.16;5074060;28;20053;-62
2023/02/10 03:33:45;;;;;;;15.02;6.18;;;;;;;-11.55;69.35;98270.97;5074096;28;20102;-63
2023/02/10 03:36:13;;;;;;;9.85;5.40;;;;;;;-11.52;69.00;98271.22;5074044;28;20454;-61
2023/02/10 03:38:42;;;;;;;11.57;5.25;;;;;;;-11.53;69.29;98269.47;5073830;28;20045;-62
2023/02/10 03:41:09;;;;;;;17.95;5.95;;;;;;;-11.64;69.72;98272.78;5074220;28;20053;-62
2023/02/10 03:43:36;;;;;;;12.75;6.50;;;;;;;-11.65;69.54;98269.41;5073899;28;20060;-61
2023/02/10 03:46:05;;;;;;;14.75;5.60;;;;;;;-11.77;69.72;98260.88;5073809;28;20095;-60
2023/02/10 03:48:33;;;;;;;7.25;4.82;;;;;;;-11.77;69.63;98264.28;5073818;28;20095;-62
2023/02/10 03:51:01;;;;;;;13.40;6.07;;;;;;;-11.74;69.89;98261.09;5073794;28;20051;-62
2023/02/10 03:53:29;;;;;;;14.05;5.22;;;;;;;-11.75;70.12;98267.78;5073661;28;20052;-62
2023/02/10 03:55:58;;;;;;;14.57;6.13;;;;;;;-11.86;69.74;98264.44;5073649;28;20044;-63
2023/02/10 03:58:26;;;;;;;7.13;3.72;;;;;;;-11.88;69.86;98262.56;5073801;28;20466;-60
2023/02/10 04:00:53;;;;;;;14.52;5.07;;;;;;;-11.84;69.77;98270.50;5073559;28;20102;-62
2023/02/10 04:03:20;;;;;;;9.25;5.65;;;;;;;-11.79;69.97;98265.81;5073754;28;20079;-62
2023/02/10 04:05:48;;;;;;;13.60;5.45;;;;;;;-11.75;69.39;98260.22;5073442;28;20052;-61
2023/02/10 04:08:15;;;;;;;9.07;4.75;;;;;;;-11.76;69.08;98262.63;5073835;28;20068;-59
2023/02/10 04:10:42;;;;;;;10.43;4.90;;;;;;;-11.76;68.83;98267.66;5073306;28;20453;-60
2023/02/10 04:13:12;;;;;;;10.32;4.63;;;;;;;-11.76;69.36;98253.41;5073206;28;20048;-61
2023/02/10 04:15:39;;;;;;;11.82;5.68;;;;;;;-11.74;69.31;98256.91;5073401;28;20056;-62
2023/02/10 04:18:09;;;;;;;12.45;5.30;;;;;;;-11.81;69.10;98252.16;5073300;28;20052;-62
2023/02/10 04:20:36;;;;;;;7.07;4.55;;;;;;;-11.91;69.07;98250.59;5073228;28;20513;-61
2023/02/10 04:23:03;;;;;;;11.60;5.43;;;;;;;-12.04;69.70;98246.22;5073229;28;20498;-62
2023/02/10 04:25:31;;;;;;;9.82;4.72;;;;;;;-12.14;70.22;98243.78;5073182;28;20076;-62
2023/02/10 04:27:58;;;;;;;12.10;5.30;;;;;;;-12.13;70.64;98253.09;5073088;28;20044;-60
2023/02/10 04:30:28;;;;;;;14.85;5.05;;;;;;;-12.20;71.02;98247.56;5073219;28;20048;-64
2023/02/10 04:32:55;;;;;;;9.10;4.10;;;;;;;-12.16;71.39;98242.78;5073141;28;20051;-61
2023/02/10 04:35:22;;;;;;;14.57;7.38;;;;;;;-12.10;71.03;98258.41;5073065;28;20066;-62
2023/02/10 04:37:49;;;;;;;13.60;6.63;;;;;;;-12.07;70.89;98251.06;5073137;28;20461;-63
2023/02/10 04:40:16;;;;;;;13.57;5.53;;;;;;;-12.02;70.94;98256.44;5073015;28;20052;-61
2023/02/10 04:42:44;;;;;;;9.35;5.10;;;;;;;-11.96;71.35;98252.75;5073007;28;20131;-61
2023/02/10 04:45:12;;;;;;;13.48;5.72;;;;;;;-11.92;71.42;98256.41;5073057;28;20067;-62
2023/02/10 04:47:41;;;;;;;13.13;5.80;;;;;;;-11.86;71.05;98253.47;5072482;28;20402;-61
2023/02/10 04:50:09;;;;;;;7.57;4.30;;;;;;;-11.90;71.33;98251.47;5072959;28;20083;-61
2023/02/10 04:52:36;;;;;;;12.93;6.07;;;;;;;-11.95;71.20;98251.13;5072914;28;20049;-62
2023/02/10 04:55:04;;;;;;;11.05;5.57;;;;;;;-11.91;71.07;98255.63;5072894;28;20083;-62
2023/02/10 04:57:32;;;;;;;10.00;4.80;;;;;;;-11.89;70.67;98258.28;5072900;28;20414;-60
2023/02/10 04:59:59;;;;;;;8.75;4.57;;;;;;;-12.01;70.99;98259.09;5072743;28;20056;-62
2023/02/10 05:02:26;;;;;;;9.43;4.70;;;;;;;-12.03;71.12;98255.56;5072778;28;20040;-62
2023/02/10 05:04:56;;;;;;;9.38;4.53;;;;;;;-11.98;70.91;98264.34;5073043;28;20098;-63
2023/02/10 05:07:23;;;;;;;9.88;4.97;;;;;;;-12.07;71.22;98269.59;5072920;28;20479;-62
2023/02/10 05:09:51;;;;;;;9.43;3.95;;;;;;;-12.07;71.62;98266.22;5072801;28;20053;-61
2023/02/10 05:12:18;;;;;;;11.45;5.00;;;;;;;-12.00;71.63;98265.00;5072803;28;20139;-61
2023/02/10 05:14:45;;;;;;;18.85;5.15;;;;;;;-12.06;71.66;98268.84;5072650;28;20044;-63
2023/02/10 05:17:13;;;;;;;10.38;4.90;;;;;;;-12.12;71.34;98270.00;5073022;28;20052;-63
2023/02/10 05:19:41;;;;;;;9.43;4.97;;;;;;;-12.14;71.41;98261.47;5072806;28;20049;-60
2023/02/10 05:22:10;;;;;;;10.20;5.63;;;;;;;-12.15;71.56;98272.28;5072606;28;20498;-61
2023/02/10 05:24:37;;;;;;;11.35;5.57;;;;;;;-12.14;71.64;98272.41;5072514;28;20076;-63
2023/02/10 05:27:05;;;;;;;10.10;4.35;;;;;;;-12.13;72.04;98268.25;5072629;28;20102;-61
2023/02/10 05:29:32;;;;;;;19.00;6.07;;;;;;;-12.01;71.29;98278.41;5072649;28;20075;-62
2023/02/10 05:31:59;;;;;;;16.27;5.35;;;;;;;-11.98;71.21;98281.16;5072616;28;20051;-61
2023/02/10 05:34:27;;;;;;;8.88;4.88;;;;;;;-12.05;72.02;98285.72;5072647;28;20139;-59
2023/02/10 05:36:54;;;;;;;16.45;5.28;;;;;;;-12.00;71.88;98285.22;5072715;28;20048;-64
2023/02/10 05:39:25;;;;;;;10.73;5.30;;;;;;;-11.93;71.88;98284.91;5072413;28;20122;-63
2023/02/10 05:41:53;;;;;;;10.43;4.72;;;;;;;-11.88;71.40;98283.66;5072559;28;20052;-61
2023/02/10 05:44:21;;;;;;;8.05;4.40;;;;;;;-11.83;71.53;98287.41;5072405;28;20460;-63
2023/02/10 05:46:48;;;;;;;10.45;5.40;;;;;;;-11.80;71.22;98296.88;5072476;28;20096;-61
2023/02/10 05:49:16;;;;;;;11.50;4.70;;;;;;;-11.73;71.16;98299.13;5072761;28;20051;-60
2023/02/10 05:51:44;;;;;;;7.78;4.53;;;;;;;-11.61;70.69;98296.66;5072432;28;20501;-60
2023/02/10 05:54:11;;;;;;;10.35;4.70;;;;;;;-11.52;70.52;98300.63;5072461;28;20087;-63
2023/02/10 05:56:40;;;;;;;8.55;4.43;;;;;;;-11.53;70.67;98293.84;5072656;28;20056;-62
2023/02/10 05:59:07;;;;;;;10.30;4.38;;;;;;;-11.52;70.65;98305.69;5073305;28;20056;-62
2023/02/10 06:01:34;;;;;;;11.98;5.93;;;;;;;-11.12;72.31;98295.19;5075923;28;20125;-61
2023/02/10 06:04:03;;;;;;;11.70;5.53;;;;;;;-9.62;70.06;98295.72;5075850;28;20135;-62
2023/02/10 06:06:30;;;;;;;11.98;5.15;;;;;;;-7.67;64.80;98288.88;5076005;28;20067;-62
2023/02/10 06:08:57;;;;;;;8.05;4.40;;;;;;;-5.73;57.63;98299.91;5075760;28;20048;-64
2023/02/10 06:11:24;;;;;;;8.30;4.13;;;;;;;-4.00;51.69;98285.69;5075693;28;20052;-63
2023/02/10 06:13:53;;;;;;;7.25;4.05;;;;;;;-2.53;47.42;98294.69;5075474;28;20052;-63
2023/02/10 06:16:20;;;;;;;6.75;4.03;;;;;;;-1.18;44.48;98296.53;5075601;28;20459;-65
2023/02/10 06:18:47;;;;;;;10.00;4.35;;;;;;;0.01;41.91;98297.13;5075543;28;20135;-65
2023/02/10 06:21:15;;;;;;;8.75;4.57;;;;;;;1.33;39.53;98301.03;5075527;28;20098;-65
2023/02/10 06:23:42;;;;;;;7.15;4.40;;;;;;;2.49;37.11;98291.78;5075547;28;20049;-64
2023/02/10 06:26:09;;;;;;;9.05;5.18;;;;;;;3.48;35.34;98285.97;5075552;28;20044;-65
2023/02/10 06:28:36;;;;;;;8.20;4.82;;;;;;;4.42;33.45;98281.47;5075152;28;20135;-64
2023/02/10 06:31:07;;;;;;;8.88;4.82;;;;;;;5.26;32.65;98289.47;5075213;28;20044;-64
2023/02/10 06:33:35;;;;;;;7.70;5.05;;;;;;;6.08;31.13;98283.34;5075311;28;20055;-66
2023/02/10 06:36:05;;;;;;;7.63;4.93;;;;;;;6.97;29.52;98281.28;5075318;28;20044;-65
2023/02/10 06:38:32;;;;;;;9.07;5.18;;;;;;;7.94;28.41;98290.19;5075257;28;20054;-65
2023/02/10 06:40:59;;;;;;;8.10;5.25;;;;;;;8.73;27.72;98277.97;5075077;28;20049;-64
2023/02/10 06:43:27;;;;;;;7.82;5.25;;;;;;;9.30;26.57;98276.03;5075014;28;20124;-64
2023/02/10 06:45:55;;;;;;;7.57;4.70;;;;;;;9.86;26.31;98279.16;5074960;28;20060;-65
2023/02/10 06:48:24;;;;;;;8.00;5.00;;;;;;;10.31;25.06;98277.91;5075278;28;20049;-66
2023/02/10 06:50:52;;;;;;;8.20;4.82;;;;;;;10.72;25.13;98288.03;5074965;28;20044;-63
2023/02/10 06:53:19;;;;;;;7.60;4.75;;;;;;;11.19;24.13;98284.84;5075147;28;20066;-64
2023/02/10 06:55:46;;;;;;;6.95;4.75;;;;;;;11.86;23.61;98286.56;5074803;28;20087;-63
2023/02/10 06:58:13;;;;;;;8.43;5.55;;;;;;;12.14;22.57;98278.28;5074804;28;20090;-63
2023/02/10 07:00:40;;;;;;;7.88;5.32;;;;;;;12.19;22.63;98279.06;5074696;28;20086;-66
2023/02/10 07:03:07;;;;;;;8.82;5.70;;;;;;;11.98;22.13;98291.59;5075092;28;20391;-66
2023/02/10 07:05:36;;;;;;;8.35;5.78;;;;;;;12.56;22.27;98292.44;5074726;28;20072;-65
2023/02/10 07:08:04;;;;;;;6.63;5.32;;;;;;;12.71;21.56;98296.56;5074564;28;20052;-65
2023/02/10 07:10:31;;;;;;;11.02;5.72;;;;;;;13.15;21.46;98291.31;5074126;28;20054;-64
2023/02/10 07:12:59;;;;;;;8.43;6.22;;;;;;;13.56;21.54;98287.84;5074214;28;20044;-65
2023/02/10 07:15:27;;;;;;;10.55;6.82;;;;;;;14.06;20.83;98290.19;5074743;28;20055;-64
2023/02/10 07:17:53;;;;;;;11.25;7.00;;;;;;;14.64;20.03;98289.66;5074428;28;20123;-66
2023/02/10 07:20:21;;;;;;;9.85;6.85;;;;;;;14.63;19.46;98295.78;5074217;28;20565;-63
2023/02/10 07:22:51;;;;;;;9.55;6.82;;;;;;;14.51;19.87;98298.78;5074449;28;20084;-66
2023/02/10 07:25:18;;;;;;;8.80;5.87;;;;;;;14.81;19.55;98301.50;5074312;28;20044;-64
2023/02/10 07:27:45;;;;;;;9.27;6.85;;;;;;;14.09;19.97;98295.38;5074139;28;20059;-66
2023/02/10 07:30:13;;;;;;;11.35;7.30;;;;;;;14.53;19.78;98296.94;5074089;28;20063;-64
2023/02/10 07:32:44;;;;;;;11.20;6.95;;;;;;;14.99;19.68;98294.88;5074114;28;20048;-63
2023/02/10 07:35:12;;;;;;;9.68;6.95;;;;;;;14.94;18.89;98294.16;5074022;28;20086;-66
2023/02/10 07:37:39;;;;;;;8.88;6.45;;;;;;;14.77;19.10;98291.94;5073957;28;20136;-65
2023/02/10 07:40:09;;;;;;;9.27;6.50;;;;;;;14.38;19.69;98290.31;5073959;28;20430;-65
2023/02/10 07:42:36;;;;;;;9.73;6.60;;;;;;;14.71;19.74;98295.59;5073899;28;20045;-66
2023/02/10 07:45:05;;;;;;;10.95;6.95;;;;;;;15.66;18.33;98292.91;5073878;28;20498;-63
2023/02/10 07:47:32;;;;;;;11.60;7.45;;;;;;;15.97;18.45;98291.13;5074020;28;20079;-64
2023/02/10 07:49:59;;;;;;;12.35;9.32;;;;;;;16.78;17.66;98291.06;5073852;28;20048;-65
2023/02/10 07:52:27;;;;;;;10.05;7.10;;;;;;;16.38;17.64;98285.38;5073779;28;20106;-62
2023/02/10 07:54:55;;;;;;;11.60;6.63;;;;;;;16.34;18.15;98289.03;5073657;28;20048;-65
2023/02/10 07:57:26;;;;;;;8.52;6.68;;;;;;;16.09;17.99;98291.63;5073668;28;20076;-66
2023/02/10 07:59:53;;;;;;;12.25;8.45;;;;;;;16.10;17.62;98293.38;5073472;28;20414;-65
2023/02/10 08:02:20;;;;;;;11.18;6.70;;;;;;;16.60;17.91;98294.34;5073764;28;20123;-65
2023/02/10 08:04:47;;;;;;;9.93;7.15;;;;;;;15.93;18.23;98286.84;5073483;28;20101;-64
2023/02/10 08:07:15;;;;;;;7.80;5.95;;;;;;;15.47;17.70;98281.22;5073513;28;20045;-63
2023/02/10 08:09:42;;;;;;;9.60;6.50;;;;;;;14.92;18.85;98285.41;5073394;28;20049;-65
2023/02/10 08:12:09;;;;;;;7.07;6.10;;;;;;;13.78;19.80;98288.22;5073431;28;20052;-65
2023/02/10 08:14:37;;;;;;;9.52;6.45;;;;;;;14.05;19.80;98295.53;5073322;28;20091;-65
2023/02/10 08:17:05;;;;;;;8.88;6.30;;;;;;;12.91;20.91;98284.81;5073341;28;20055;-64
2023/02/10 08:19:33;;;;;;;11.48;6.13;;;;;;;12.40;22.02;98287.47;5073216;28;20448;-64
2023/02/10 08:22:00;;;;;;;12.77;6.50;;;;;;;12.08;22.55;98281.88;5072407;28;20074;-64
2023/02/10 08:24:28;;;;;;;9.48;6.68;;;;;;;12.00;22.41;98287.22;5073239;28;20084;-64
2023/02/10 08:26:55;;;;;;;9.52;6.70;;;;;;;11.10;22.45;98281.47;5073223;28;20490;-63
2023/02/10 08:29:22;;;;;;;8.18;6.05;;;;;;;10.69;22.99;98281.06;5073213;28;20040;-64
2023/02/10 08:31:52;;;;;;;8.65;5.97;;;;;;;9.40;22.86;98285.56;5073197;28;20048;-64
2023/02/10 08:34:21;;;;;;;9.98;5.68;;;;;;;7.97;24.65;98278.91;5073157;28;20135;-63
2023/02/10 08:36:49;;;;;;;9.20;4.93;;;;;;;6.96;25.81;98282.16;5073186;28;20066;-63
2023/02/10 08:39:16;;;;;;;7.60;4.97;;;;;;;6.11;26.52;98270.38;5073010;28;20052;-63
2023/02/10 08:41:43;;;;;;;7.10;4.80;;;;;;;5.22;28.01;98285.09;5073089;28;20131;-62
2023/02/10 08:44:13;;;;;;;8.55;4.97;;;;;;;4.37;29.68;98269.31;5073028;28;20494;-63
2023/02/10 08:46:40;;;;;;;6.88;3.92;;;;;;;3.96;30.52;98270.41;5073099;28;20438;-63
2023/02/10 08:49:09;;;;;;;10.70;7.07;;;;;;;3.90;31.03;98278.94;5073180;28;20048;-63
2023/02/10 08:51:38;;;;;;;7.05;4.70;;;;;;;3.65;30.23;98273.38;5072924;28;20106;-61
2023/02/10 08:54:06;;;;;;;7.45;4.68;;;;;;;3.37;31.28;98280.63;5072831;28;20110;-63
2023/02/10 08:56:34;;;;;;;8.13;4.82;;;;;;;3.18;31.37;98280.25;5072957;28;20459;-62
2023/02/10 08:59:01;;;;;;;8.13;4.60;;;;;;;3.41;31.95;98272.94;5072924;28;20048;-63
2023/02/10 09:01:28;;;;;;;7.38;4.22;;;;;;;3.68;31.52;98276.00;5072807;28;20074;-62
2023/02/10 09:03:56;;;;;;;7.05;4.30;;;;;;;3.69;31.42;98269.09;5072772;28;20045;-62
2023/02/10 09:06:27;;;;;;;6.70;4.63;;;;;;;3.59;31.55;98281.00;5072956;28;20079;-63
2023/02/10 09:08:55;;;;;;;8.32;4.97;;;;;;;3.37;32.12;98278.91;5072801;28;20050;-63
2023/02/10 09:11:24;;;;;;;6.03;4.45;;;;;;;3.42;32.19;98276.41;5072675;28;20041;-62
2023/02/10 09:13:51;;;;;;;7.63;5.10;;;;;;;3.74;31.06;98273.53;5072554;28;20072;-62
2023/02/10 09:16:18;;;;;;;7.30;4.00;;;;;;;3.59;29.94;98268.06;5073088;28;20074;-63
2023/02/10 09:18:46;;;;;;;7.10;4.00;;;;;;;3.05;32.64;98263.66;5072699;28;20057;-61
2023/02/10 09:21:13;;;;;;;8.93;4.63;;;;;;;3.20;32.92;98270.84;5072726;28;20410;-62
2023/02/10 09:23:41;;;;;;;6.90;4.60;;;;;;;3.41;30.16;98259.13;5072678;28;20049;-63
2023/02/10 09:26:09;;;;;;;5.43;3.60;;;;;;;3.31;30.30;98265.00;5072581;28;20491;-63
2023/02/10 09:28:36;;;;;;;6.28;3.42;;;;;;;3.32;28.07;98266.72;5072604;28;20047;-62
2023/02/10 09:31:05;;;;;;;6.55;4.20;;;;;;;3.09;27.86;98265.44;5072527;28;20072;-63
2023/02/10 09:33:32;;;;;;;5.25;3.38;;;;;;;3.25;28.33;98255.41;5074258;28;20048;-62
2023/02/10 09:36:00;;;;;;;8.88;3.83;;;;;;;3.36;29.44;98242.66;5076507;28;20131;-62
2023/02/10 09:38:28;;;;;;;6.47;4.10;;;;;;;3.22;30.07;98245.84;5076192;28;20059;-63
2023/02/10 09:41:07;;;;;;;6.30;4.10;;;;;;;3.33;31.23;98235.72;5076427;28;20376;-62
2023/02/10 09:43:56;;;;;;;9.13;4.43;;;;;;;3.59;29.71;98237.91;5076147;28;20487;-63
2023/02/10 09:46:32;;;;;;;6.72;3.83;;;;;;;3.75;30.14;98227.78;5076066;28;20052;-61
2023/02/10 09:49:12;;;;;;;6.43;4.13;;;;;;;3.66;30.22;98236.25;5076131;28;20083;-61
2023/02/10 09:51:47;;;;;;;7.82;3.88;;;;;;;3.58;29.55;98230.94;5076197;28;20064;-62
2023/02/10 09:54:17;;;;;;;6.47;3.97;;;;;;;3.79;30.02;98219.22;5076264;28;20053;-63
2023/02/10 09:56:45;;;;;;;5.72;3.95;;;;;;;3.85;28.95;98219.31;5075953;28;20044;-63
2023/02/10 09:59:17;;;;;;;8.70;3.83;;;;;;;3.81;28.14;98217.53;5076117;28;20485;-63
2023/02/10 10:01:48;;;;;;;6.22;3.63;;;;;;;3.47;29.68;98212.69;5075853;28;20070;-62
2023/02/10 10:04:18;;;;;;;10.73;4.10;;;;;;;3.46;30.31;98212.66;5075810;28;20139;-63
2023/02/10 10:06:47;;;;;;;8.25;4.72;;;;;;;3.67;29.96;98197.47;5075858;28;20071;-63
2023/02/10 10:09:29;;;;;;;6.65;3.85;;;;;;;3.81;29.39;98199.41;5075772;28;20045;-62
2023/02/10 10:12:00;;;;;;;7.35;3.92;;;;;;;3.77;28.39;98192.44;5075743;28;20125;-63
2023/02/10 10:14:30;;;;;;;6.57;4.18;;;;;;;3.86;28.59;98192.59;5075504;28;20067;-63
2023/02/10 10:17:20;;;;;;;6.93;4.13;;;;;;;3.97;29.28;98178.94;5075641;28;20056;-63
2023/02/10 10:20:16;;;;;;;5.60;4.00;;;;;;;3.95;28.75;98186.69;5075460;28;20052;-63
2023/02/10 10:22:53;;;;;;;7.53;3.80;;;;;;;3.77;29.27;98180.34;5075736;28;20076;-63
2023/02/10 10:25:48;;;;;;;7.45;4.00;;;;;;;3.77;29.74;98182.94;5075487;28;20482;-62
2023/02/10 10:28:31;;;;;;;5.43;3.72;;;;;;;3.99;28.69;98165.16;5075447;28;20495;-64
2023/02/10 10:31:03;;;;;;;5.47;3.78;;;;;;;4.28;29.22;98174.19;5075404;28;20071;-62
2023/02/10 10:33:36;;;;;;;4.97;3.25;;;;;;;4.27;27.83;98173.31;5075391;28;20094;-62
2023/02/10 10:36:04;;;;;;;9.00;4.20;;;;;;;4.42;27.63;98169.16;5075457;28;20049;-63
2023/02/10 10:38:34;;;;;;;6.35;3.97;;;;;;;4.32;26.62;98170.78;5075184;28;20060;-63
2023/02/10 10:41:06;;;;;;;8.32;3.72;;;;;;;4.19;27.77;98155.91;5075016;28;20059;-63
2023/02/10 10:43:43;;;;;;;5.60;3.63;;;;;;;3.95;27.66;98158.19;5075325;28;20053;-63
2023/02/10 10:46:16;;;;;;;5.03;3.42;;;;;;;3.90;26.74;98155.53;5074118;28;20059;-62
2023/02/10 10:48:44;;;;;;;6.10;3.67;;;;;;;3.86;26.48;98151.16;5074946;28;20086;-62
2023/02/10 10:51:13;;;;;;;5.43;3.70;;;;;;;3.73;27.65;98152.69;5074962;28;20048;-62
2023/02/10 10:53:43;;;;;;;5.80;3.53;;;;;;;3.69;26.78;98152.59;5075029;28;20051;-62
2023/02/10 10:56:18;;;;;;;5.63;3.42;;;;;;;3.73;26.50;98146.66;5074930;28;20048;-63
2023/02/10 10:58:48;;;;;;;6.50;3.60;;;;;;;3.65;27.50;98134.44;5074792;28;20123;-62
2023/02/10 11:01:34;;;;;;;6.10;2.97;;;;;;;3.82;28.40;98135.56;5074775;28;20064;-63
2023/02/10 11:04:06;;;;;;;8.77;5.63;;;;;;;4.04;28.52;98134.13;5074693;28;20052;-62
2023/02/10 11:06:37;;;;;;;10.40;6.20;;;;;;;4.25;27.08;98132.69;5074673;28;20125;-61
2023/02/10 11:09:18;;;;;;;5.82;3.53;;;;;;;4.22;26.88;98132.63;5074598;28;20044;-63
2023/02/10 11:11:46;;;;;;;5.72;3.00;;;;;;;4.17;26.48;98132.56;5074556;28;20044;-62
2023/02/10 11:14:23;;;;;;;5.07;3.33;;;;;;;4.25;27.87;98130.94;5074416;28;20131;-62
2023/02/10 11:16:52;;;;;;;6.55;4.10;;;;;;;4.42;27.37;98127.69;5074423;28;20486;-62
2023/02/10 11:19:24;;;;;;;7.68;4.72;;;;;;;4.46;27.31;98115.66;5074465;28;20045;-62
2023/02/10 11:21:56;;;;;;;6.15;3.60;;;;;;;4.43;26.52;98104.38;5074298;28;20048;-62
2023/02/10 11:24:25;;;;;;;5.13;3.63;;;;;;;4.41;27.65;98110.41;5074311;28;20048;-63
2023/02/10 11:27:01;;;;;;;4.22;3.13;;;;;;;4.53;26.89;98102.78;5074296;28;20053;-63
2023/02/10 11:29:34;;;;;;;7.22;3.70;;;;;;;4.46;27.25;98106.16;5074257;28;20132;-63
2023/02/10 11:32:02;;;;;;;3.58;2.97;;;;;;;4.53;26.58;98104.50;5074173;28;20080;-62
2023/02/10 11:34:31;;;;;;;6.03;3.33;;;;;;;4.46;26.36;98095.81;5074099;28;20098;-62
2023/02/10 11:37:10;;;;;;;8.32;4.07;;;;;;;4.42;26.63;98092.28;5074169;28;20048;-62
2023/02/10 11:39:40;;;;;;;4.97;3.45;;;;;;;4.47;27.23;98094.94;5074013;28;20410;-63